Time;durP1;ratioP1;P1;durP2;ratioP2;P2;SDS_P1;SDS_P2;PMS_P1;PMS_P2;Temp;Humidity;BMP_temperature;BMP_pressure;BME280_temperature;BME280_humidity;BME280_pressure;Samples;Min_cycle;Max_cycle;Signal;HPM_P1;HPM_P2
2023/08/09 00:01:11;;;;;;;7.00;6.30;;;;;;;19.53;100.00;100259.36;83589;292;136829;-60
2023/08/09 00:03:13;;;;;;;6.70;6.20;;;;;;;19.57;100.00;100263.09;83744;292;22820;-60
2023/08/09 00:05:15;;;;;;;4.50;3.50;;;;;;;19.63;100.00;100262.96;83733;292;136929;-58
2023/08/09 00:07:16;;;;;;;3.20;3.00;;;;;;;19.64;100.00;100263.84;83928;290;22548;-62
2023/08/09 00:09:20;;;;;;;3.00;2.80;;;;;;;19.56;100.00;100261.45;83749;290;136805;-70
2023/08/09 00:11:22;;;;;;;3.40;3.00;;;;;;;19.40;100.00;100261.23;84039;290;24107;-62
2023/08/09 00:13:24;;;;;;;3.50;3.40;;;;;;;19.19;100.00;100260.07;83921;290;136983;-62
2023/08/09 00:15:26;;;;;;;4.30;4.10;;;;;;;19.00;100.00;100263.52;83978;290;24204;-65
2023/08/09 00:17:28;;;;;;;3.80;3.50;;;;;;;19.00;100.00;100266.46;83710;290;138242;-63
2023/08/09 00:19:30;;;;;;;4.60;4.30;;;;;;;19.09;100.00;100256.73;84111;286;24262;-64
2023/08/09 00:21:31;;;;;;;4.00;3.80;;;;;;;19.29;100.00;100267.83;83937;285;137033;-61
2023/08/09 00:23:33;;;;;;;6.10;3.00;;;;;;;19.40;100.00;100264.05;84085;285;22688;-56
2023/08/09 00:25:35;;;;;;;3.80;3.60;;;;;;;19.49;100.00;100270.16;83922;285;137160;-61
2023/08/09 00:27:37;;;;;;;3.20;3.00;;;;;;;19.49;100.00;100272.89;84089;285;25286;-63
2023/08/09 00:29:39;;;;;;;1.70;1.50;;;;;;;19.55;100.00;100278.27;84005;286;138254;-66
2023/08/09 00:31:41;;;;;;;2.40;2.20;;;;;;;19.57;100.00;100275.96;84210;285;22548;-62
2023/08/09 00:33:43;;;;;;;2.20;2.00;;;;;;;19.52;100.00;100274.04;84043;285;136921;-60
2023/08/09 00:35:45;;;;;;;2.40;2.30;;;;;;;19.54;100.00;100274.30;84137;286;25301;-61
2023/08/09 00:37:47;;;;;;;2.00;1.90;;;;;;;19.47;100.00;100271.13;83958;285;136814;-61
2023/08/09 00:39:50;;;;;;;2.50;2.20;;;;;;;19.37;100.00;100271.90;84102;285;25234;-60
2023/08/09 00:41:53;;;;;;;1.50;1.20;;;;;;;19.26;100.00;100271.68;83988;285;138022;-62
2023/08/09 00:43:54;;;;;;;1.30;1.30;;;;;;;19.13;100.00;100272.14;84229;285;25271;-60
2023/08/09 00:45:56;;;;;;;0.90;0.90;;;;;;;18.99;100.00;100274.34;83975;285;137477;-65
2023/08/09 00:48:00;;;;;;;1.50;1.40;;;;;;;18.94;100.00;100275.08;84119;285;22580;-60
2023/08/09 00:50:02;;;;;;;1.50;1.10;;;;;;;18.93;100.00;100278.14;84013;285;137375;-57
2023/08/09 00:52:05;;;;;;;1.70;1.30;;;;;;;18.90;100.00;100278.52;84249;285;138063;-61
2023/08/09 00:54:06;;;;;;;1.80;1.20;;;;;;;18.79;100.00;100280.42;84203;285;22857;-56
2023/08/09 00:56:09;;;;;;;4.90;1.30;;;;;;;18.72;100.00;100283.27;84101;277;137022;-60
2023/08/09 00:58:13;;;;;;;2.20;1.10;;;;;;;18.72;100.00;100286.51;84100;284;22646;-60
2023/08/09 01:00:15;;;;;;;0.80;0.80;;;;;;;18.65;100.00;100281.15;84018;284;138074;-65
2023/08/09 01:02:17;;;;;;;4.00;1.30;;;;;;;18.53;100.00;100290.43;84276;284;24258;-63
2023/08/09 01:04:19;;;;;;;1.10;1.00;;;;;;;18.38;100.00;100294.36;84229;284;136977;-57
2023/08/09 01:06:46;;;;;;;4.50;2.00;;;;;;;18.20;100.00;100297.09;84155;284;24100;-58
2023/08/09 01:09:03;;;;;;;2.90;1.40;;;;;;;17.99;100.00;100304.93;84080;284;138010;-58
2023/08/09 01:11:17;;;;;;;0.90;0.90;;;;;;;17.85;100.00;100304.58;84300;285;25200;-60
2023/08/09 01:13:20;;;;;;;1.20;1.10;;;;;;;17.80;100.00;100300.73;84089;285;137044;-59
2023/08/09 01:15:22;;;;;;;2.00;1.40;;;;;;;17.85;100.00;100299.02;84189;284;22660;-61
2023/08/09 01:17:29;;;;;;;1.10;1.00;;;;;;;17.86;100.00;100302.66;84175;284;136929;-63
2023/08/09 01:19:34;;;;;;;0.90;0.90;;;;;;;17.80;100.00;100305.99;84250;284;25221;-60
2023/08/09 01:21:38;;;;;;;4.70;1.00;;;;;;;17.68;100.00;100304.67;84126;283;136895;-61
2023/08/09 01:23:41;;;;;;;1.30;1.20;;;;;;;17.58;100.00;100306.88;84218;284;22580;-60
2023/08/09 01:25:44;;;;;;;3.70;1.10;;;;;;;17.50;100.00;100309.08;84084;284;136997;-64
2023/08/09 01:27:46;;;;;;;4.40;0.70;;;;;;;17.43;100.00;100311.72;84146;284;22811;-59
2023/08/09 01:29:47;;;;;;;1.70;1.10;;;;;;;17.40;100.00;100314.17;84045;285;138033;-62
2023/08/09 01:31:50;;;;;;;1.10;0.80;;;;;;;17.37;100.00;100313.95;84170;285;22565;-62
2023/08/09 01:33:52;;;;;;;1.10;1.00;;;;;;;17.37;100.00;100312.11;84083;283;137911;-65
2023/08/09 01:36:05;;;;;;;2.00;1.00;;;;;;;17.36;100.00;100316.19;84167;285;22575;-63
2023/08/09 01:38:33;;;;;;;1.40;1.20;;;;;;;17.36;100.00;100318.64;84241;285;24916;-63
2023/08/09 01:40:36;;;;;;;1.90;1.30;;;;;;;17.32;100.00;100319.27;84139;285;137119;-63
2023/08/09 01:42:40;;;;;;;3.80;1.40;;;;;;;17.30;100.00;100318.95;84252;285;24139;-62
2023/08/09 01:44:42;;;;;;;3.60;1.00;;;;;;;17.28;100.00;100321.38;84088;285;138376;-63
2023/08/09 01:46:46;;;;;;;1.50;1.00;;;;;;;17.25;100.00;100318.42;84117;286;24098;-66
2023/08/09 01:48:48;;;;;;;1.60;0.80;;;;;;;17.25;100.00;100322.56;84014;284;136421;-64
2023/08/09 01:50:50;;;;;;;1.40;1.30;;;;;;;17.24;100.00;100322.83;84065;285;25256;-61
2023/08/09 01:52:57;;;;;;;1.00;0.90;;;;;;;17.25;100.00;100320.95;84035;283;136928;-61
2023/08/09 01:54:59;;;;;;;2.30;0.80;;;;;;;17.24;100.00;100328.84;84143;285;25226;-63
2023/08/09 01:57:03;;;;;;;1.40;1.30;;;;;;;17.24;100.00;100334.05;84077;284;138294;-71
2023/08/09 01:59:05;;;;;;;2.10;1.10;;;;;;;17.21;100.00;100333.27;84273;284;25144;-63
2023/08/09 02:01:08;;;;;;;2.60;1.20;;;;;;;17.16;100.00;100331.06;84129;284;136829;-66
2023/08/09 02:03:11;;;;;;;2.80;1.20;;;;;;;17.10;100.00;100333.61;84204;281;24136;-63
2023/08/09 02:05:16;;;;;;;1.30;1.10;;;;;;;17.09;100.00;100336.23;84125;284;136985;-61
2023/08/09 02:07:17;;;;;;;1.10;1.00;;;;;;;17.08;100.00;100337.54;84176;285;25256;-61
2023/08/09 02:09:20;;;;;;;1.20;1.00;;;;;;;17.09;100.00;100339.57;84036;284;137241;-62
2023/08/09 02:11:22;;;;;;;2.80;1.10;;;;;;;17.08;100.00;100338.31;84370;272;25316;-62
2023/08/09 02:13:26;;;;;;;1.10;1.10;;;;;;;17.06;100.00;100345.35;84150;284;138276;-62
2023/08/09 02:15:28;;;;;;;1.80;1.10;;;;;;;17.02;100.00;100346.78;84128;284;23784;-62
2023/08/09 02:17:29;;;;;;;1.60;1.10;;;;;;;16.97;100.00;100344.91;84075;284;137251;-63
2023/08/09 02:19:31;;;;;;;1.40;0.80;;;;;;;17.00;100.00;100350.59;84251;283;26208;-62
2023/08/09 02:21:33;;;;;;;1.90;1.10;;;;;;;17.00;100.00;100349.52;84151;284;136827;-61
2023/08/09 02:23:35;;;;;;;1.20;1.10;;;;;;;17.00;100.00;100348.39;84173;284;25319;-63
2023/08/09 02:25:36;;;;;;;1.90;0.90;;;;;;;17.06;100.00;100352.69;84103;284;137071;-62
2023/08/09 02:27:39;;;;;;;2.10;1.40;;;;;;;17.08;100.00;100353.23;84281;284;24139;-64
2023/08/09 02:29:41;;;;;;;1.90;1.30;;;;;;;17.08;100.00;100358.08;84163;284;138761;-61
2023/08/09 02:31:46;;;;;;;2.50;1.30;;;;;;;17.11;100.00;100356.05;84309;284;22453;-61
2023/08/09 02:33:48;;;;;;;1.30;1.20;;;;;;;17.12;100.00;100356.02;84271;284;136859;-71
2023/08/09 02:35:56;;;;;;;1.30;1.20;;;;;;;17.09;100.00;100359.40;84250;283;22553;-62
2023/08/09 02:37:58;;;;;;;1.40;1.30;;;;;;;17.12;100.00;100364.56;84207;283;137536;-65
2023/08/09 02:40:01;;;;;;;1.50;0.80;;;;;;;17.24;100.00;100361.36;84136;284;22544;-66
2023/08/09 02:42:03;;;;;;;1.40;1.20;;;;;;;17.43;100.00;100368.13;83921;284;137691;-68
2023/08/09 02:44:05;;;;;;;1.10;0.90;;;;;;;17.52;100.00;100374.00;83931;284;138906;-64
2023/08/09 02:46:06;;;;;;;1.30;1.10;;;;;;;17.60;100.00;100375.92;84034;284;22577;-62
2023/08/09 02:48:11;;;;;;;1.20;1.10;;;;;;;17.72;100.00;100370.91;83925;284;137219;-74
2023/08/09 02:50:13;;;;;;;1.30;1.20;;;;;;;17.78;100.00;100369.90;84055;284;22545;-63
2023/08/09 02:52:14;;;;;;;0.90;0.80;;;;;;;17.74;100.00;100368.67;84055;284;137385;-63
2023/08/09 02:54:18;;;;;;;1.30;0.80;;;;;;;17.60;100.00;100374.48;84074;284;24190;-64
2023/08/09 02:56:20;;;;;;;1.30;1.10;;;;;;;17.45;100.00;100375.78;84248;284;137538;-59
2023/08/09 02:58:22;;;;;;;8.70;1.80;;;;;;;17.32;100.00;100380.00;84162;284;25278;-63
2023/08/09 03:00:24;;;;;;;1.70;1.20;;;;;;;17.33;100.00;100385.85;84034;284;137609;-63
2023/08/09 03:02:26;;;;;;;1.70;1.30;;;;;;;17.44;100.00;100387.44;84086;285;24100;-59
2023/08/09 03:04:28;;;;;;;2.40;1.20;;;;;;;17.45;100.00;100389.73;84497;285;137167;-59
2023/08/09 03:06:32;;;;;;;2.30;0.90;;;;;;;17.44;100.00;100390.21;84087;284;25296;-61
2023/08/09 03:08:34;;;;;;;1.50;1.20;;;;;;;17.51;100.00;100387.95;83915;285;137474;-60
2023/08/09 03:10:36;;;;;;;4.30;1.20;;;;;;;17.68;100.00;100391.09;84043;284;25151;-62
2023/08/09 03:12:38;;;;;;;1.70;1.20;;;;;;;17.95;100.00;100386.71;83925;284;137151;-63
2023/08/09 03:14:40;;;;;;;2.00;1.50;;;;;;;18.24;100.00;100385.41;83964;285;25226;-59
2023/08/09 03:16:43;;;;;;;2.90;1.40;;;;;;;18.52;100.00;100392.86;83963;284;137434;-62
2023/08/09 03:18:45;;;;;;;1.80;1.10;;;;;;;18.76;100.00;100381.90;84212;285;22603;-59
2023/08/09 03:20:50;;;;;;;0.90;0.70;;;;;;;19.08;100.00;100387.79;83977;284;137410;-60
2023/08/09 03:22:51;;;;;;;1.00;1.00;;;;;;;19.42;100.00;100386.90;84234;284;24135;-61
2023/08/09 03:24:53;;;;;;;1.60;1.10;;;;;;;19.71;100.00;100384.10;84132;285;137027;-60
2023/08/09 03:26:55;;;;;;;1.90;1.00;;;;;;;20.05;99.51;100388.44;84134;285;24326;-61
2023/08/09 03:28:57;;;;;;;4.00;0.90;;;;;;;20.20;97.38;100370.73;84184;281;138131;-62
2023/08/09 03:30:59;;;;;;;3.10;1.50;;;;;;;20.39;96.62;100386.23;84142;284;25299;-61
2023/08/09 03:33:05;;;;;;;1.60;1.40;;;;;;;20.54;95.85;100386.09;83860;285;136491;-61
2023/08/09 03:35:10;;;;;;;2.30;0.80;;;;;;;20.72;93.99;100388.30;84109;285;22570;-60
2023/08/09 03:37:13;;;;;;;2.20;0.90;;;;;;;20.92;92.90;100390.36;84062;285;136976;-62
2023/08/09 03:39:14;;;;;;;4.60;1.00;;;;;;;21.11;92.27;100391.41;84052;286;25293;-60
2023/08/09 03:41:16;;;;;;;1.40;0.90;;;;;;;21.35;90.48;100394.27;84002;285;137680;-61
2023/08/09 03:43:18;;;;;;;5.60;1.80;;;;;;;21.60;88.83;100399.00;84366;284;22710;-61
2023/08/09 03:45:22;;;;;;;2.00;1.00;;;;;;;21.67;87.48;100393.02;83933;285;136476;-57
2023/08/09 03:47:25;;;;;;;1.30;1.10;;;;;;;21.97;86.89;100409.39;84328;284;23744;-61
2023/08/09 03:49:27;;;;;;;2.90;1.30;;;;;;;22.29;85.96;100410.07;84258;284;136488;-60
2023/08/09 03:51:29;;;;;;;1.90;1.00;;;;;;;22.66;83.05;100411.95;84147;284;22572;-62
2023/08/09 03:53:31;;;;;;;2.40;1.20;;;;;;;22.89;81.39;100414.08;83974;284;137810;-60
2023/08/09 03:55:33;;;;;;;1.60;0.80;;;;;;;23.00;80.74;100413.49;83965;285;26409;-60
2023/08/09 03:57:35;;;;;;;4.60;1.20;;;;;;;23.14;80.28;100408.83;84013;284;136387;-63
2023/08/09 03:59:37;;;;;;;1.10;0.80;;;;;;;23.33;78.80;100410.02;84227;284;22492;-62
2023/08/09 04:01:39;;;;;;;1.00;0.60;;;;;;;23.45;77.73;100411.11;84213;272;137847;-61
2023/08/09 04:03:41;;;;;;;1.20;1.10;;;;;;;23.59;76.18;100411.88;84012;284;22781;-58
2023/08/09 04:05:44;;;;;;;2.60;0.50;;;;;;;23.72;74.20;100414.36;83965;285;136406;-61
2023/08/09 04:07:46;;;;;;;0.80;0.50;;;;;;;23.59;73.11;100417.75;84063;286;22546;-62
2023/08/09 04:09:48;;;;;;;4.20;0.90;;;;;;;23.43;73.88;100419.98;84051;284;136385;-61
2023/08/09 04:11:50;;;;;;;1.70;0.60;;;;;;;23.42;73.40;100424.89;83973;286;24134;-61
2023/08/09 04:13:51;;;;;;;0.90;0.40;;;;;;;23.55;72.74;100424.71;84005;284;137776;-61
2023/08/09 04:15:54;;;;;;;1.30;0.70;;;;;;;23.67;70.73;100423.89;83953;285;25227;-61
2023/08/09 04:17:56;;;;;;;1.80;0.70;;;;;;;23.71;70.71;100427.70;83877;283;136009;-60
2023/08/09 04:19:59;;;;;;;1.00;0.50;;;;;;;23.78;70.88;100429.00;84300;284;24142;-61
2023/08/09 04:22:01;;;;;;;2.00;0.80;;;;;;;23.92;69.48;100426.27;83997;285;135822;-60
2023/08/09 04:24:04;;;;;;;2.40;0.50;;;;;;;24.02;68.93;100432.19;83815;277;136757;-60
2023/08/09 04:26:06;;;;;;;2.10;0.70;;;;;;;24.20;68.63;100432.26;84024;283;22813;-62
2023/08/09 04:28:08;;;;;;;1.10;0.60;;;;;;;24.40;67.86;100432.73;83948;284;136345;-59
2023/08/09 04:30:15;;;;;;;1.50;0.50;;;;;;;24.54;66.82;100433.34;84132;283;22545;-60
2023/08/09 04:32:16;;;;;;;3.00;0.60;;;;;;;24.73;66.52;100432.98;83986;283;136713;-62
2023/08/09 04:34:18;;;;;;;5.50;1.10;;;;;;;24.99;65.36;100433.05;83949;285;22556;-60
2023/08/09 04:36:20;;;;;;;5.20;1.20;;;;;;;25.13;63.71;100436.80;83889;284;137757;-62
2023/08/09 04:38:22;;;;;;;1.10;0.70;;;;;;;25.19;62.87;100436.04;83949;284;25369;-62
2023/08/09 04:40:25;;;;;;;0.90;0.50;;;;;;;25.14;63.69;100439.89;83989;284;136294;-60
2023/08/09 04:42:27;;;;;;;2.40;0.70;;;;;;;25.30;63.66;100441.88;84059;284;25154;-63
2023/08/09 04:44:29;;;;;;;2.10;1.20;;;;;;;25.61;62.86;100441.25;83934;284;136405;-59
2023/08/09 04:46:31;;;;;;;1.00;0.70;;;;;;;25.95;62.37;100438.48;84006;284;22588;-64
2023/08/09 04:48:34;;;;;;;3.10;0.90;;;;;;;26.30;60.49;100442.77;83960;283;136414;-63
2023/08/09 04:50:35;;;;;;;1.80;0.30;;;;;;;26.44;58.25;100442.55;84193;283;25297;-61
2023/08/09 04:52:38;;;;;;;0.70;0.70;;;;;;;26.40;58.29;100442.16;84021;283;137838;-63
2023/08/09 04:54:40;;;;;;;2.40;0.40;;;;;;;26.47;58.56;100439.65;83989;284;22564;-61
2023/08/09 04:56:42;;;;;;;1.40;0.50;;;;;;;26.74;56.79;100442.17;83869;284;136135;-62
2023/08/09 04:58:44;;;;;;;3.20;0.70;;;;;;;26.89;55.79;100444.34;84072;285;25310;-67
2023/08/09 05:00:46;;;;;;;0.70;0.60;;;;;;;26.94;55.07;100449.79;83955;284;136327;-68
2023/08/09 05:02:48;;;;;;;0.70;0.40;;;;;;;27.04;54.74;100449.66;84011;284;24106;-70
2023/08/09 05:04:50;;;;;;;3.50;0.70;;;;;;;27.28;52.88;100448.81;83882;284;137793;-65
2023/08/09 05:06:52;;;;;;;2.00;0.80;;;;;;;27.50;51.55;100450.89;84083;284;24142;-69
2023/08/09 05:08:54;;;;;;;1.60;0.50;;;;;;;27.59;50.03;100452.05;85050;284;136285;-64
2023/08/09 05:10:56;;;;;;;1.10;0.80;;;;;;;27.62;49.95;100455.92;83950;284;22579;-68
2023/08/09 05:12:58;;;;;;;1.30;0.50;;;;;;;27.71;49.38;100456.48;84005;284;136595;-69
2023/08/09 05:14:59;;;;;;;0.60;0.40;;;;;;;27.86;49.18;100457.45;84151;285;22574;-66
2023/08/09 05:17:01;;;;;;;1.30;0.60;;;;;;;28.16;48.50;100448.36;84050;284;137051;-67
2023/08/09 05:19:03;;;;;;;0.90;0.50;;;;;;;28.39;46.62;100444.45;84245;285;22564;-66
2023/08/09 05:21:05;;;;;;;1.40;0.60;;;;;;;28.22;45.45;100443.15;84006;283;137299;-69
2023/08/09 05:23:09;;;;;;;1.20;0.80;;;;;;;27.76;45.78;100443.37;84198;283;23544;-69
2023/08/09 05:25:14;;;;;;;0.50;0.40;;;;;;;27.24;46.77;100445.30;83977;284;136272;-64
2023/08/09 05:27:16;;;;;;;2.40;0.90;;;;;;;26.86;47.99;100450.27;84105;284;25160;-66
2023/08/09 05:29:17;;;;;;;1.50;1.30;;;;;;;26.66;48.62;100454.10;83922;284;136020;-66
2023/08/09 05:31:21;;;;;;;2.60;0.80;;;;;;;26.45;49.75;100460.08;84210;284;25363;-65
2023/08/09 05:33:25;;;;;;;1.80;0.40;;;;;;;26.33;49.00;100459.89;83975;284;136485;-69
2023/08/09 05:35:27;;;;;;;0.40;0.40;;;;;;;26.02;48.54;100448.53;83973;285;25224;-69
2023/08/09 05:37:30;;;;;;;0.40;0.40;;;;;;;25.76;49.54;100457.55;84037;284;136641;-65
2023/08/09 05:39:32;;;;;;;0.70;0.30;;;;;;;25.48;50.02;100459.42;83970;285;24218;-66
2023/08/09 05:41:34;;;;;;;1.10;0.50;;;;;;;25.29;51.09;100457.49;84046;284;136424;-67
2023/08/09 05:43:37;;;;;;;1.00;0.60;;;;;;;25.29;50.91;100459.02;84097;282;22537;-65
2023/08/09 05:45:40;;;;;;;1.00;0.40;;;;;;;25.29;50.82;100460.50;84109;285;136466;-66
2023/08/09 05:47:42;;;;;;;0.40;0.30;;;;;;;25.25;50.45;100453.42;84065;284;24102;-67
2023/08/09 05:49:44;;;;;;;1.30;0.30;;;;;;;25.35;50.89;100466.77;83985;284;136571;-68
2023/08/09 05:51:46;;;;;;;2.30;0.30;;;;;;;25.50;50.69;100467.70;84001;284;22589;-65
2023/08/09 05:53:48;;;;;;;0.80;0.40;;;;;;;25.53;49.96;100471.66;83843;283;136226;-71
2023/08/09 05:55:50;;;;;;;1.30;0.60;;;;;;;25.51;50.16;100475.45;83981;284;22551;-65
2023/08/09 05:57:52;;;;;;;0.30;0.30;;;;;;;25.47;50.06;100480.61;84076;285;136396;-68
2023/08/09 05:59:54;;;;;;;1.20;0.60;;;;;;;25.42;50.40;100482.17;84024;284;22657;-67
2023/08/09 06:01:59;;;;;;;1.50;0.30;;;;;;;25.41;49.78;100484.79;84009;285;136247;-68
2023/08/09 06:04:01;;;;;;;0.60;0.20;;;;;;;25.37;49.67;100489.36;84108;284;22563;-68
2023/08/09 06:06:04;;;;;;;1.60;0.40;;;;;;;25.40;49.65;100485.95;84086;285;22546;-68
2023/08/09 06:08:05;;;;;;;3.40;0.50;;;;;;;25.35;49.75;100486.59;83736;286;136620;-65
2023/08/09 06:10:07;;;;;;;0.70;0.50;;;;;;;25.28;49.19;100483.20;83994;284;25371;-68
2023/08/09 06:12:10;;;;;;;0.70;0.20;;;;;;;25.13;50.09;100485.55;83992;284;137855;-68
2023/08/09 06:14:12;;;;;;;2.00;0.50;;;;;;;25.11;49.57;100487.37;84073;284;24258;-69
2023/08/09 06:16:13;;;;;;;1.30;0.30;;;;;;;25.23;49.28;100483.71;83939;285;137697;-63
2023/08/09 06:18:16;;;;;;;1.20;0.50;;;;;;;25.29;48.89;100481.49;84146;284;25230;-64
2023/08/09 06:20:21;;;;;;;3.40;0.40;;;;;;;25.17;48.36;100482.38;84055;284;136751;-66
2023/08/09 06:22:23;;;;;;;0.90;0.20;;;;;;;25.03;49.30;100482.00;83946;284;22545;-68
2023/08/09 06:24:25;;;;;;;0.80;0.40;;;;;;;24.96;49.76;100480.80;84006;284;138295;-63
2023/08/09 06:26:27;;;;;;;2.80;0.80;;;;;;;25.08;49.89;100480.08;84068;284;22669;-66
2023/08/09 06:28:30;;;;;;;0.40;0.30;;;;;;;25.01;49.90;100465.61;84130;282;136323;-66
2023/08/09 06:30:32;;;;;;;2.00;1.20;;;;;;;25.08;49.04;100485.42;84140;282;25179;-65
2023/08/09 06:32:34;;;;;;;1.90;0.40;;;;;;;25.08;47.21;100485.41;84090;282;136208;-64
2023/08/09 06:34:36;;;;;;;1.20;0.70;;;;;;;25.14;47.66;100486.65;84189;283;24075;-66
2023/08/09 06:36:38;;;;;;;1.50;0.40;;;;;;;25.21;47.31;100485.69;84120;282;136294;-67
2023/08/09 06:38:40;;;;;;;1.20;0.30;;;;;;;25.30;45.33;100489.52;84213;281;23497;-69
2023/08/09 06:40:42;;;;;;;0.20;0.20;;;;;;;25.39;44.87;100489.50;84136;274;136374;-72
2023/08/09 06:42:44;;;;;;;0.60;0.40;;;;;;;25.36;46.33;100485.60;84220;281;22558;-67
2023/08/09 06:44:47;;;;;;;1.60;0.60;;;;;;;25.39;45.99;100484.28;84159;281;136192;-67
2023/08/09 06:46:51;;;;;;;1.30;1.20;;;;;;;25.52;45.00;100484.02;84178;282;22547;-67
2023/08/09 06:48:53;;;;;;;2.00;1.30;;;;;;;25.50;45.13;100483.05;84024;282;136610;-66
2023/08/09 06:50:57;;;;;;;3.30;3.10;;;;;;;25.44;44.91;100485.80;84214;283;25294;-68
2023/08/09 06:52:58;;;;;;;2.20;2.10;;;;;;;25.53;44.63;100484.88;84112;282;137252;-73
2023/08/09 06:55:00;;;;;;;0.60;0.50;;;;;;;25.69;44.49;100485.29;84299;281;24879;-65
2023/08/09 06:57:03;;;;;;;1.40;1.30;;;;;;;25.67;43.38;100487.97;84041;282;137033;-72
2023/08/09 06:59:05;;;;;;;3.00;0.90;;;;;;;25.56;43.47;100486.48;84252;281;23018;-65
2023/08/09 07:01:09;;;;;;;1.10;0.50;;;;;;;25.53;43.42;100487.66;84200;281;136414;-67
2023/08/09 07:03:11;;;;;;;1.30;0.70;;;;;;;25.56;43.01;100485.77;84336;282;22536;-67
2023/08/09 07:05:18;;;;;;;1.70;1.60;;;;;;;25.58;43.28;100480.14;84061;279;137749;-66
2023/08/09 07:07:21;;;;;;;1.40;1.30;;;;;;;25.56;43.50;100483.75;84229;282;22549;-69
2023/08/09 07:09:24;;;;;;;1.50;0.60;;;;;;;25.69;43.01;100482.94;84131;282;136295;-65
2023/08/09 07:11:26;;;;;;;0.60;0.30;;;;;;;25.75;41.79;100487.52;84311;282;25193;-62
2023/08/09 07:13:27;;;;;;;0.70;0.20;;;;;;;25.77;42.31;100488.18;84126;282;136428;-66
2023/08/09 07:15:29;;;;;;;2.30;0.20;;;;;;;25.80;41.85;100486.67;84236;282;24116;-61
2023/08/09 07:17:31;;;;;;;1.10;0.10;;;;;;;25.73;41.57;100483.40;84235;281;136284;-65
2023/08/09 07:19:32;;;;;;;2.30;0.20;;;;;;;25.53;41.52;100483.29;84235;282;22589;-67
2023/08/09 07:21:34;;;;;;;0.70;0.30;;;;;;;25.17;40.85;100475.73;84016;281;136377;-66
2023/08/09 07:23:36;;;;;;;2.30;0.70;;;;;;;24.94;41.56;100486.26;84254;281;24634;-67
2023/08/09 07:25:58;;;;;;;0.80;0.30;;;;;;;24.54;42.51;100482.55;84094;281;136242;-63
2023/08/09 07:28:00;;;;;;;1.50;0.30;;;;;;;24.25;43.24;100484.30;84113;281;22557;-64
2023/08/09 07:30:01;;;;;;;1.30;0.30;;;;;;;24.07;44.69;100489.53;84226;282;136212;-65
2023/08/09 07:32:04;;;;;;;1.80;0.60;;;;;;;23.90;45.13;100493.25;84113;283;136400;-67
2023/08/09 07:34:06;;;;;;;1.70;0.40;;;;;;;23.71;45.40;100495.73;84335;282;22558;-66
2023/08/09 07:36:08;;;;;;;1.40;0.30;;;;;;;23.58;46.25;100498.93;84054;282;136341;-65
2023/08/09 07:38:09;;;;;;;1.00;0.40;;;;;;;23.49;45.99;100502.63;84247;281;22543;-65
2023/08/09 07:40:14;;;;;;;0.60;0.30;;;;;;;23.33;46.12;100501.62;84069;281;136216;-66
2023/08/09 07:42:16;;;;;;;0.60;0.20;;;;;;;23.19;46.73;100497.40;84226;282;22543;-69
2023/08/09 07:44:18;;;;;;;0.70;0.40;;;;;;;23.13;47.78;100497.73;84160;282;137970;-65
2023/08/09 07:46:19;;;;;;;3.30;0.40;;;;;;;23.14;47.62;100498.98;84307;281;24099;-65
2023/08/09 07:48:22;;;;;;;0.80;0.30;;;;;;;23.11;47.33;100500.48;84229;281;136527;-65
2023/08/09 07:50:24;;;;;;;1.80;1.50;;;;;;;23.06;47.35;100502.87;84111;281;22671;-64
2023/08/09 07:52:27;;;;;;;5.60;1.80;;;;;;;23.03;48.13;100501.12;83778;280;496638;-66
2023/08/09 07:54:29;;;;;;;1.10;0.50;;;;;;;23.05;47.83;100500.42;84319;280;22638;-65
2023/08/09 07:56:30;;;;;;;2.20;1.10;;;;;;;23.02;47.88;100503.49;84200;280;136627;-63
2023/08/09 07:58:32;;;;;;;1.40;0.40;;;;;;;22.99;48.20;100504.06;84193;280;25227;-67
2023/08/09 08:00:34;;;;;;;2.00;0.60;;;;;;;23.00;47.97;100505.91;84255;280;137387;-66
2023/08/09 08:02:50;;;;;;;1.70;0.40;;;;;;;22.95;48.33;100508.02;84274;282;24131;-65
2023/08/09 08:04:53;;;;;;;2.20;0.40;;;;;;;22.91;49.02;100505.89;84130;280;137680;-66
2023/08/09 08:06:55;;;;;;;1.40;0.20;;;;;;;22.95;48.42;100506.67;84236;281;24562;-69
2023/08/09 08:08:57;;;;;;;1.70;0.20;;;;;;;22.99;47.23;100499.13;84206;280;138223;-65
2023/08/09 08:10:59;;;;;;;2.60;0.30;;;;;;;23.02;46.02;100497.11;84248;280;22557;-65
2023/08/09 08:13:02;;;;;;;1.00;0.40;;;;;;;23.01;45.75;100497.66;84213;281;136197;-66
2023/08/09 08:15:06;;;;;;;1.40;0.50;;;;;;;23.05;46.25;100494.70;84478;281;22548;-68
2023/08/09 08:17:08;;;;;;;1.60;0.40;;;;;;;23.10;46.51;100496.42;84285;280;136534;-67
2023/08/09 08:19:10;;;;;;;1.80;0.40;;;;;;;23.14;46.60;100492.83;84221;280;24097;-67
2023/08/09 08:21:12;;;;;;;0.50;0.30;;;;;;;23.17;47.45;100491.86;84264;281;136477;-66
2023/08/09 08:23:14;;;;;;;1.20;0.40;;;;;;;23.23;46.91;100493.83;84442;281;25245;-68
2023/08/09 08:25:17;;;;;;;3.10;0.40;;;;;;;23.26;44.80;100497.42;84278;281;137658;-67
2023/08/09 08:27:19;;;;;;;0.80;0.40;;;;;;;23.21;44.73;100501.55;84339;281;25131;-66
2023/08/09 08:29:22;;;;;;;1.50;0.40;;;;;;;23.17;45.25;100503.98;84268;281;137134;-65
2023/08/09 08:31:24;;;;;;;1.70;0.40;;;;;;;23.18;45.04;100500.98;84430;281;22646;-67
2023/08/09 08:33:27;;;;;;;1.10;0.50;;;;;;;23.26;44.99;100503.02;84131;281;136406;-70
2023/08/09 08:35:33;;;;;;;1.90;0.20;;;;;;;23.35;45.12;100503.27;84300;281;25141;-70
2023/08/09 08:37:36;;;;;;;4.00;0.90;;;;;;;23.39;44.60;100500.05;84296;281;136402;-65
2023/08/09 08:39:39;;;;;;;1.20;0.40;;;;;;;23.39;45.28;100499.52;84348;282;22656;-66
2023/08/09 08:41:43;;;;;;;;;;;;;;;23.45;45.01;100499.57;84144;282;136554;-65
2023/08/09 08:43:45;;;;;;;0.60;0.50;;;;;;;23.48;44.48;100504.15;84152;283;22556;-69
2023/08/09 08:45:48;;;;;;;0.90;0.80;;;;;;;23.42;44.74;100503.64;84206;281;136435;-66
2023/08/09 08:47:50;;;;;;;2.20;0.30;;;;;;;23.42;44.69;100501.26;84315;281;24320;-65
2023/08/09 08:49:56;;;;;;;2.00;0.50;;;;;;;23.42;45.67;100491.63;84171;281;136957;-66
2023/08/09 08:51:59;;;;;;;1.40;0.20;;;;;;;23.48;45.72;100496.25;84232;282;24080;-67
2023/08/09 08:54:01;;;;;;;0.60;0.30;;;;;;;23.54;45.12;100503.06;84247;281;138188;-66
2023/08/09 08:56:04;;;;;;;1.50;0.20;;;;;;;23.52;44.11;100505.23;84236;281;137256;-66
2023/08/09 08:58:05;;;;;;;1.20;0.40;;;;;;;23.49;44.01;100504.15;84374;269;24069;-66
2023/08/09 09:00:15;;;;;;;3.90;0.50;;;;;;;23.45;44.01;100509.80;84266;281;138038;-65
2023/08/09 09:02:28;;;;;;;0.60;0.20;;;;;;;23.44;43.74;100507.91;84309;282;25131;-69
2023/08/09 09:04:30;;;;;;;0.80;0.20;;;;;;;23.49;43.35;100513.23;84179;282;137695;-71
2023/08/09 09:06:32;;;;;;;0.50;0.20;;;;;;;23.53;42.54;100511.44;84292;282;22663;-66
2023/08/09 09:08:44;;;;;;;2.10;0.30;;;;;;;23.55;42.51;100511.17;84209;277;136486;-65
2023/08/09 09:10:48;;;;;;;1.00;0.40;;;;;;;23.58;42.53;100504.64;84350;281;25232;-69
2023/08/09 09:12:53;;;;;;;1.10;0.30;;;;;;;23.59;42.84;100499.09;84334;281;137837;-62
2023/08/09 09:14:56;;;;;;;0.60;0.20;;;;;;;23.58;42.84;100502.41;84389;281;24100;-64
2023/08/09 09:16:58;;;;;;;0.80;0.60;;;;;;;23.57;42.72;100498.61;84039;281;136298;-63
2023/08/09 09:19:00;;;;;;;0.50;0.20;;;;;;;23.55;43.29;100504.88;84341;281;22570;-67
2023/08/09 09:21:02;;;;;;;0.40;0.20;;;;;;;23.56;42.83;100503.89;84193;281;136266;-66
2023/08/09 09:23:04;;;;;;;1.70;0.30;;;;;;;23.57;43.49;100508.09;84217;282;22569;-66
2023/08/09 09:25:11;;;;;;;5.20;0.40;;;;;;;23.60;43.29;100508.08;84120;281;136173;-67
2023/08/09 09:27:13;;;;;;;8.10;0.50;;;;;;;23.64;43.02;100506.17;84223;282;22543;-66
2023/08/09 09:29:15;;;;;;;1.40;0.20;;;;;;;23.64;42.42;100511.08;84207;281;136270;-65
2023/08/09 09:31:17;;;;;;;1.50;0.30;;;;;;;23.59;41.86;100510.96;84362;281;26306;-65
2023/08/09 09:33:34;;;;;;;1.80;0.30;;;;;;;23.54;42.03;100511.33;84096;281;136064;-66